Time;durP1;ratioP1;P1;durP2;ratioP2;P2;SDS_P1;SDS_P2;PMS_P1;PMS_P2;Temp;Humidity;BMP_temperature;BMP_pressure;BME280_temperature;BME280_humidity;BME280_pressure;Samples;Min_cycle;Max_cycle;Signal;HPM_P1;HPM_P2
2021/06/27 00:01:40;;;;;;;14.70;5.97;;;;;;;23.81;68.59;99847.83;1784136;80;21775;-57
2021/06/27 00:04:45;;;;;;;19.15;6.42;;;;;;;23.77;68.61;99839.69;1784112;80;21268;-55
2021/06/27 00:07:51;;;;;;;15.72;6.70;;;;;;;23.74;68.66;99831.04;1784252;80;21413;-56
2021/06/27 00:10:58;;;;;;;9.85;6.37;;;;;;;23.63;68.71;99825.41;1783957;80;21195;-56
2021/06/27 00:14:04;;;;;;;19.62;6.67;;;;;;;23.54;68.94;99834.05;1783790;80;21361;-56
2021/06/27 00:17:10;;;;;;;18.15;6.72;;;;;;;23.49;69.31;99857.77;1783694;80;21342;-56
2021/06/27 00:20:23;;;;;;;13.13;6.62;;;;;;;23.46;69.52;99870.04;1783570;80;21172;-56
2021/06/27 00:23:30;;;;;;;13.58;6.58;;;;;;;23.41;69.67;99877.00;1783920;80;21624;-55
2021/06/27 00:26:35;;;;;;;13.05;7.08;;;;;;;23.34;69.75;99867.46;1783696;80;21346;-55
2021/06/27 00:29:40;;;;;;;14.53;7.42;;;;;;;23.25;69.94;99873.28;1784091;80;21590;-56
2021/06/27 00:32:46;;;;;;;16.75;6.65;;;;;;;23.19;70.14;99883.27;1777068;80;21844;-56
2021/06/27 00:35:52;;;;;;;12.30;6.65;;;;;;;23.17;70.34;99894.70;1770075;80;21398;-56
2021/06/27 00:38:57;;;;;;;10.80;6.85;;;;;;;23.17;70.42;99898.05;1769838;80;21184;-55
2021/06/27 00:42:04;;;;;;;17.87;7.60;;;;;;;23.17;70.49;99893.86;1770166;80;21355;-54
2021/06/27 00:45:10;;;;;;;17.90;8.00;;;;;;;23.12;70.54;99886.29;1770095;80;21397;-55
2021/06/27 00:48:15;;;;;;;18.42;7.42;;;;;;;23.08;70.66;99892.69;1769992;80;21189;-56
2021/06/27 00:51:22;;;;;;;10.15;6.78;;;;;;;23.02;70.84;99891.83;1783103;80;21259;-55
2021/06/27 00:54:28;;;;;;;13.98;7.05;;;;;;;22.99;71.06;99889.55;1769847;80;21315;-56
2021/06/27 00:57:34;;;;;;;10.30;6.47;;;;;;;22.97;71.16;99897.92;1770075;80;21323;-56
2021/06/27 01:00:41;;;;;;;11.83;7.67;;;;;;;22.94;71.32;99913.81;1769942;80;21200;-55
2021/06/27 01:03:47;;;;;;;11.65;7.30;;;;;;;22.89;71.53;99927.18;1783294;80;21247;-54
2021/06/27 01:06:53;;;;;;;19.52;7.47;;;;;;;22.83;71.85;99918.48;1769874;80;21256;-54
2021/06/27 01:09:59;;;;;;;15.13;7.50;;;;;;;22.78;72.25;99912.00;1769933;80;21358;-55
2021/06/27 01:13:04;;;;;;;16.52;8.38;;;;;;;22.73;72.56;99920.33;1770328;80;21221;-55
2021/06/27 01:16:09;;;;;;;28.47;8.20;;;;;;;22.73;73.03;99932.89;1783277;80;21236;-55
2021/06/27 01:19:16;;;;;;;10.43;7.67;;;;;;;22.75;73.23;99921.77;1770204;80;21331;-57
2021/06/27 01:22:22;;;;;;;17.27;8.23;;;;;;;22.79;73.29;99924.84;1769818;80;21728;-55
2021/06/27 01:25:34;;;;;;;14.20;8.28;;;;;;;22.84;73.32;99924.89;1783309;80;21200;-56
2021/06/27 01:28:39;;;;;;;12.20;7.63;;;;;;;22.86;73.31;99920.73;1770222;80;21299;-56
2021/06/27 01:31:44;;;;;;;15.13;7.75;;;;;;;22.90;73.35;99922.42;1769624;80;21360;-55
2021/06/27 01:34:50;;;;;;;12.73;8.55;;;;;;;22.92;73.11;99941.14;1777202;80;21322;-56
2021/06/27 01:37:57;;;;;;;20.77;11.08;;;;;;;22.93;72.96;99947.03;1784286;80;21386;-56
2021/06/27 01:41:04;;;;;;;13.08;8.83;;;;;;;22.95;72.83;99954.03;1783656;80;21773;-55
2021/06/27 01:44:09;;;;;;;12.33;9.40;;;;;;;22.94;72.79;99952.90;1784299;80;21382;-55
2021/06/27 01:47:14;;;;;;;14.65;9.23;;;;;;;22.93;72.79;99944.25;1784237;80;21188;-54
2021/06/27 01:50:20;;;;;;;16.95;9.38;;;;;;;22.88;72.79;99928.84;1784328;80;21406;-55
2021/06/27 01:53:28;;;;;;;18.10;9.08;;;;;;;22.83;72.98;99926.00;1784290;80;21449;-57
2021/06/27 01:56:33;;;;;;;20.10;9.45;;;;;;;22.80;73.37;99928.76;1784237;80;21215;-56
2021/06/27 01:59:39;;;;;;;14.65;10.20;;;;;;;22.80;73.50;99934.92;1784272;80;21224;-56
2021/06/27 02:02:44;;;;;;;14.83;9.25;;;;;;;22.80;73.58;99941.89;1784210;80;21339;-57
2021/06/27 02:05:50;;;;;;;12.90;9.45;;;;;;;22.79;73.61;99931.81;1784302;80;21337;-55
2021/06/27 02:08:56;;;;;;;15.53;9.90;;;;;;;22.79;73.64;99930.42;1784226;80;21405;-55
2021/06/27 02:12:02;;;;;;;13.30;9.25;;;;;;;22.78;73.70;99923.16;1784120;80;21212;-55
2021/06/27 02:15:07;;;;;;;20.97;8.83;;;;;;;22.76;73.77;99916.45;1784355;80;21380;-55
2021/06/27 02:18:38;;;;;;;14.23;9.28;;;;;;;22.75;73.82;99912.00;1784204;80;21543;-54
2021/06/27 02:21:46;;;;;;;15.90;9.80;;;;;;;22.68;73.92;99907.17;1784441;80;21426;-56
2021/06/27 02:24:50;;;;;;;17.07;9.38;;;;;;;22.56;74.43;99907.92;1784223;80;21243;-55
2021/06/27 02:27:57;;;;;;;13.72;10.20;;;;;;;22.47;74.93;99897.47;1784211;80;21215;-55
2021/06/27 02:31:03;;;;;;;11.25;9.30;;;;;;;22.44;75.38;99898.00;1784047;80;21231;-55
2021/06/27 02:34:09;;;;;;;13.55;10.03;;;;;;;22.45;75.62;99901.92;1784225;80;21334;-55
2021/06/27 02:37:14;;;;;;;13.08;9.28;;;;;;;22.47;75.77;99908.63;1784094;80;21358;-54
2021/06/27 02:40:21;;;;;;;18.85;9.70;;;;;;;22.48;75.97;99921.47;1784246;80;21338;-56
2021/06/27 02:43:27;;;;;;;17.37;10.93;;;;;;;22.48;76.10;99937.66;1784123;80;21239;-57
2021/06/27 02:46:32;;;;;;;16.37;10.60;;;;;;;22.53;76.13;99939.14;1784334;80;21207;-55
2021/06/27 02:49:38;;;;;;;14.33;10.60;;;;;;;22.58;76.16;99936.38;1784081;80;21184;-55
2021/06/27 02:52:45;;;;;;;13.58;10.25;;;;;;;22.65;76.14;99938.41;1783802;80;21252;-55
2021/06/27 02:56:07;;;;;;;14.70;10.03;;;;;;;22.70;76.09;99939.00;1784223;80;21417;-55
2021/06/27 02:58:59;;;;;;;16.52;10.93;;;;;;;22.73;76.19;99928.70;1784077;80;21311;-55
2021/06/27 03:02:04;;;;;;;16.10;10.75;;;;;;;22.78;76.11;99928.75;1783604;80;21330;-56
2021/06/27 03:05:11;;;;;;;15.88;10.53;;;;;;;22.80;76.09;99920.38;1784055;80;21235;-55
2021/06/27 03:08:17;;;;;;;16.55;11.33;;;;;;;22.85;76.20;99917.64;1783772;80;21342;-56
2021/06/27 03:11:22;;;;;;;19.07;10.78;;;;;;;22.87;76.35;99911.78;1783930;80;21747;-54
2021/06/27 03:14:27;;;;;;;18.40;11.05;;;;;;;22.90;76.68;99900.94;1783916;80;21350;-55
2021/06/27 03:17:33;;;;;;;16.05;10.72;;;;;;;22.98;76.85;99903.77;1783755;80;21339;-55
2021/06/27 03:20:39;;;;;;;19.00;10.78;;;;;;;23.02;76.75;99898.81;1783811;80;21369;-55
2021/06/27 03:23:45;;;;;;;12.68;10.90;;;;;;;23.06;76.86;99897.15;1783645;80;21408;-55
2021/06/27 03:26:51;;;;;;;13.75;10.55;;;;;;;23.13;76.97;99883.80;1783787;80;21216;-54
2021/06/27 03:29:57;;;;;;;16.05;11.03;;;;;;;23.19;76.72;99877.68;1783604;80;21377;-55
2021/06/27 03:33:02;;;;;;;15.43;11.03;;;;;;;23.30;76.59;99888.68;1783852;80;21200;-56
2021/06/27 03:36:07;;;;;;;14.40;10.23;;;;;;;23.40;76.31;99886.50;1783029;78;21381;-56
2021/06/27 03:39:14;;;;;;;22.22;11.53;;;;;;;23.50;76.37;99868.38;1784269;80;21370;-56
2021/06/27 03:42:19;;;;;;;19.87;9.63;;;;;;;23.60;76.37;99869.82;1784121;80;21318;-55
2021/06/27 03:45:24;;;;;;;14.18;9.85;;;;;;;23.70;75.98;99858.70;1784027;80;21424;-56
2021/06/27 03:48:30;;;;;;;14.83;9.18;;;;;;;23.80;74.92;99862.08;1784117;80;21346;-55
2021/06/27 03:51:36;;;;;;;11.12;8.40;;;;;;;23.87;74.22;99856.50;1784232;80;21219;-55
2021/06/27 03:54:42;;;;;;;11.25;8.13;;;;;;;23.98;73.23;99856.00;1784008;80;21346;-55
2021/06/27 03:57:47;;;;;;;10.38;6.70;;;;;;;24.07;72.61;99852.39;1784176;80;21354;-56
2021/06/27 04:00:52;;;;;;;10.80;6.80;;;;;;;24.15;71.61;99846.25;1784175;80;21341;-55
2021/06/27 04:03:57;;;;;;;12.05;6.75;;;;;;;24.23;70.97;99833.11;1784057;80;21249;-56
2021/06/27 04:07:02;;;;;;;9.50;5.85;;;;;;;24.30;69.96;99837.89;1784096;80;21338;-56
2021/06/27 04:10:07;;;;;;;7.30;5.95;;;;;;;24.39;69.45;99829.77;1784188;80;21445;-56
2021/06/27 04:13:13;;;;;;;9.55;5.42;;;;;;;24.45;68.75;99823.89;1784263;80;21350;-55
2021/06/27 04:16:19;;;;;;;11.20;5.90;;;;;;;24.51;67.95;99831.20;1784075;80;21420;-56
2021/06/27 04:19:25;;;;;;;15.30;5.53;;;;;;;24.61;67.65;99826.97;1784267;80;21357;-56
2021/06/27 04:22:30;;;;;;;11.15;5.28;;;;;;;24.71;67.33;99817.20;1784140;80;21247;-55
2021/06/27 04:25:36;;;;;;;6.90;5.37;;;;;;;24.81;66.47;99804.61;1784177;80;21363;-56
2021/06/27 04:28:41;;;;;;;7.35;5.28;;;;;;;24.93;65.84;99811.28;1784119;80;21769;-56
2021/06/27 04:31:49;;;;;;;9.28;5.20;;;;;;;25.02;64.96;99795.02;1784349;80;21397;-55
2021/06/27 04:34:55;;;;;;;9.65;5.62;;;;;;;25.12;64.61;99797.53;1784191;80;21216;-56
2021/06/27 04:38:00;;;;;;;8.90;5.65;;;;;;;25.25;64.58;99794.09;1775424;80;21259;-55
2021/06/27 04:41:07;;;;;;;16.97;8.68;;;;;;;25.35;64.02;99795.50;1773229;81;21237;-56
2021/06/27 04:44:12;;;;;;;13.62;7.37;;;;;;;25.49;63.64;99788.16;1773094;81;21187;-56
2021/06/27 04:47:18;;;;;;;16.65;6.42;;;;;;;25.63;63.28;99790.59;1773070;81;21207;-56
2021/06/27 04:50:23;;;;;;;11.38;6.22;;;;;;;25.73;62.85;99783.55;1772743;81;21184;-56
2021/06/27 04:53:30;;;;;;;10.72;4.85;;;;;;;25.82;62.61;99786.86;1772923;81;21223;-56
2021/06/27 04:56:35;;;;;;;11.35;5.85;;;;;;;25.88;61.77;99780.63;1772702;81;21195;-56
2021/06/27 04:59:41;;;;;;;12.00;6.25;;;;;;;25.94;61.53;99784.52;1772726;81;21227;-55
2021/06/27 05:02:46;;;;;;;8.78;4.97;;;;;;;26.01;61.74;99782.83;1772617;81;21188;-56
2021/06/27 05:05:51;;;;;;;12.43;5.65;;;;;;;26.09;61.26;99777.45;1773933;81;21795;-55
2021/06/27 05:08:56;;;;;;;10.98;5.37;;;;;;;26.20;60.60;99781.00;1775113;80;21772;-56
2021/06/27 05:12:02;;;;;;;6.30;4.03;;;;;;;26.40;60.26;99769.63;1775755;80;21176;-56
2021/06/27 05:15:06;;;;;;;5.95;3.95;;;;;;;26.65;59.09;99768.02;1775636;80;21176;-56
2021/06/27 05:18:11;;;;;;;8.73;3.60;;;;;;;26.83;58.71;99776.27;1775687;80;21729;-55
2021/06/27 05:21:17;;;;;;;5.58;3.62;;;;;;;26.90;57.30;99784.61;1775835;80;21703;-56
2021/06/27 05:24:22;;;;;;;6.95;3.72;;;;;;;26.97;56.66;99781.45;1776167;80;21209;-56
2021/06/27 05:27:28;;;;;;;7.55;3.65;;;;;;;27.01;56.73;99777.75;1775875;80;21333;-56
2021/06/27 05:30:33;;;;;;;9.50;3.65;;;;;;;27.01;56.12;99780.56;1775772;80;21275;-56
2021/06/27 05:33:39;;;;;;;6.30;4.37;;;;;;;27.11;55.99;99776.80;1775860;80;21160;-54
2021/06/27 05:36:45;;;;;;;5.67;3.77;;;;;;;27.18;56.15;99777.29;1775798;80;21204;-55
2021/06/27 05:39:50;;;;;;;5.95;4.90;;;;;;;27.29;56.32;99774.66;1788836;80;21208;-55
2021/06/27 05:42:56;;;;;;;6.58;4.47;;;;;;;27.39;56.67;99772.55;1796491;80;21312;-57
2021/06/27 05:46:05;;;;;;;7.92;4.62;;;;;;;27.42;56.08;99768.28;1796443;80;21367;-57
2021/06/27 05:49:10;;;;;;;11.73;5.30;;;;;;;27.42;55.87;99769.12;1796440;80;21196;-56
2021/06/27 05:52:16;;;;;;;8.78;5.55;;;;;;;27.46;57.00;99782.84;1794053;80;21236;-56
2021/06/27 05:55:22;;;;;;;5.92;5.17;;;;;;;27.45;57.19;99780.33;1743219;82;21385;-56
2021/06/27 05:58:28;;;;;;;9.28;5.40;;;;;;;27.47;57.46;99778.06;1743164;82;21220;-55
2021/06/27 06:01:33;;;;;;;10.13;6.42;;;;;;;27.53;57.63;99789.50;1743396;82;21235;-55
2021/06/27 06:04:38;;;;;;;11.22;7.03;;;;;;;27.56;58.53;99788.34;1743755;80;21215;-58
2021/06/27 06:07:44;;;;;;;11.33;6.83;;;;;;;27.61;59.18;99793.05;1743556;82;21701;-56
2021/06/27 06:10:50;;;;;;;7.62;6.37;;;;;;;27.59;58.57;99800.98;1744097;81;21227;-55
2021/06/27 06:13:56;;;;;;;8.70;6.60;;;;;;;27.51;58.70;99805.27;1744134;82;21212;-55
2021/06/27 06:17:03;;;;;;;9.00;5.62;;;;;;;27.46;58.56;99805.33;1744167;82;21682;-54
2021/06/27 06:20:10;;;;;;;8.33;5.37;;;;;;;27.41;57.57;99804.02;1744084;80;21247;-55
2021/06/27 06:23:16;;;;;;;10.70;5.75;;;;;;;27.36;56.70;99809.70;1744155;82;21219;-57
2021/06/27 06:26:22;;;;;;;9.10;5.58;;;;;;;27.36;56.77;99807.44;1744114;80;21224;-58
2021/06/27 06:29:27;;;;;;;9.53;5.85;;;;;;;27.41;56.94;99801.20;1744354;82;21219;-56
2021/06/27 06:32:32;;;;;;;8.95;5.58;;;;;;;27.43;56.87;99812.16;1744028;82;21215;-55
2021/06/27 06:35:38;;;;;;;9.73;5.42;;;;;;;27.44;56.27;99814.66;1744077;81;21232;-55
2021/06/27 06:38:43;;;;;;;9.88;5.53;;;;;;;27.42;55.76;99813.27;1744151;82;21204;-56
2021/06/27 06:41:49;;;;;;;8.73;6.50;;;;;;;27.38;55.85;99811.65;1742721;82;21251;-55
2021/06/27 06:44:56;;;;;;;8.23;6.15;;;;;;;27.46;56.17;99814.36;1753270;82;21365;-56
2021/06/27 06:48:00;;;;;;;9.00;5.47;;;;;;;27.63;56.39;99824.54;1753218;82;21458;-55
2021/06/27 06:51:06;;;;;;;7.95;4.72;;;;;;;27.88;56.35;99822.82;1752532;82;21274;-56
2021/06/27 06:54:11;;;;;;;6.72;5.50;;;;;;;28.07;55.64;99823.67;1752244;82;21349;-54
2021/06/27 06:57:17;;;;;;;10.58;4.67;;;;;;;28.26;55.44;99825.09;1752409;82;21538;-55
2021/06/27 07:00:24;;;;;;;10.20;4.87;;;;;;;28.38;53.71;99833.34;1752417;82;21291;-56
2021/06/27 07:03:30;;;;;;;9.30;5.03;;;;;;;28.41;53.63;99838.36;1759302;80;21226;-55
2021/06/27 07:06:36;;;;;;;7.92;4.90;;;;;;;28.27;54.06;99844.50;1778132;80;21302;-56
2021/06/27 07:09:41;;;;;;;8.35;4.95;;;;;;;28.18;54.95;99837.86;1752276;82;21809;-55
2021/06/27 07:12:46;;;;;;;8.05;4.12;;;;;;;28.08;54.41;99837.19;1743723;82;21953;-55
2021/06/27 07:15:52;;;;;;;7.87;4.75;;;;;;;28.05;54.19;99841.42;1752139;81;21223;-55
2021/06/27 07:18:58;;;;;;;7.22;4.70;;;;;;;28.06;54.38;99854.94;1772279;80;21169;-56
2021/06/27 07:22:04;;;;;;;8.83;4.58;;;;;;;28.06;53.90;99860.56;1784030;80;21338;-55
2021/06/27 07:25:11;;;;;;;11.57;5.55;;;;;;;28.02;54.69;99863.14;1779077;80;21220;-55
2021/06/27 07:28:15;;;;;;;9.25;5.67;;;;;;;27.98;56.17;99872.50;1769401;81;21181;-54
2021/06/27 07:31:20;;;;;;;11.38;6.30;;;;;;;27.93;56.01;99873.41;1766393;81;21197;-55
2021/06/27 07:34:27;;;;;;;6.97;5.45;;;;;;;27.89;56.69;99875.72;1759321;81;21315;-54
2021/06/27 07:37:32;;;;;;;8.58;5.58;;;;;;;27.88;57.09;99871.22;1752306;82;21222;-55
2021/06/27 07:40:38;;;;;;;10.15;5.40;;;;;;;27.89;56.82;99879.95;1762188;80;21225;-55
2021/06/27 07:43:45;;;;;;;10.03;5.47;;;;;;;27.84;56.15;99881.64;1761494;80;21295;-54
2021/06/27 07:46:51;;;;;;;6.22;4.75;;;;;;;27.74;55.69;99880.38;1737894;82;21267;-55
2021/06/27 07:49:56;;;;;;;5.55;4.78;;;;;;;27.67;56.08;99886.11;1737485;82;21267;-55
2021/06/27 07:53:03;;;;;;;9.98;4.85;;;;;;;27.65;54.94;99892.00;1737374;82;21232;-55
2021/06/27 07:56:09;;;;;;;7.62;4.47;;;;;;;27.69;55.05;99893.66;1738702;82;21205;-55
2021/06/27 07:59:17;;;;;;;9.08;4.35;;;;;;;27.68;53.92;99892.84;1737879;82;21239;-54
2021/06/27 08:02:23;;;;;;;5.37;4.30;;;;;;;27.63;52.68;99884.45;1726200;82;21651;-56
2021/06/27 08:05:30;;;;;;;8.13;5.20;;;;;;;27.64;53.84;99889.49;1714101;82;21244;-54
2021/06/27 08:08:38;;;;;;;8.93;4.75;;;;;;;27.75;54.86;99902.30;1726806;82;21330;-55
2021/06/27 08:11:44;;;;;;;10.40;5.37;;;;;;;27.88;55.07;99896.54;1734966;81;21233;-55
2021/06/27 08:14:50;;;;;;;10.32;4.75;;;;;;;27.93;54.75;99897.89;1753111;81;21378;-55
2021/06/27 08:17:57;;;;;;;5.65;3.90;;;;;;;27.94;55.13;99905.21;1742456;82;21172;-56
2021/06/27 08:21:04;;;;;;;15.25;4.87;;;;;;;27.93;54.79;99899.30;1714623;82;21217;-56
2021/06/27 08:24:09;;;;;;;6.55;4.20;;;;;;;27.91;54.43;99911.45;1738049;82;21212;-55
2021/06/27 08:27:14;;;;;;;7.62;4.00;;;;;;;28.00;54.14;99911.03;1719656;81;21249;-56
2021/06/27 08:30:20;;;;;;;5.92;4.45;;;;;;;28.02;53.51;99908.77;1726346;81;21976;-55
2021/06/27 08:33:26;;;;;;;5.85;4.10;;;;;;;27.99;53.77;99914.41;1738256;81;21661;-56
2021/06/27 08:36:32;;;;;;;15.70;4.87;;;;;;;28.00;54.46;99908.22;1728942;82;21196;-54
2021/06/27 08:39:37;;;;;;;9.60;4.37;;;;;;;28.02;55.57;99910.17;1729146;83;21200;-55
2021/06/27 08:42:44;;;;;;;8.98;4.50;;;;;;;28.12;55.48;99905.80;1729277;83;21189;-54
2021/06/27 08:46:04;;;;;;;7.12;4.05;;;;;;;28.22;54.82;99909.89;1755867;80;21407;-55
2021/06/27 08:49:07;;;;;;;11.08;4.10;;;;;;;28.17;54.23;99891.66;1765422;80;21883;-56
2021/06/27 08:52:15;;;;;;;7.58;4.03;;;;;;;28.16;54.15;99909.14;1788767;80;21348;-55
2021/06/27 08:55:22;;;;;;;8.80;3.92;;;;;;;28.11;53.10;99912.02;1766874;79;21859;-55
2021/06/27 08:58:27;;;;;;;6.03;4.03;;;;;;;28.04;53.39;99905.05;1766984;80;21355;-54
2021/06/27 09:01:32;;;;;;;8.05;3.67;;;;;;;28.03;53.83;99910.43;1751604;80;21341;-56
2021/06/27 09:04:38;;;;;;;8.70;4.10;;;;;;;28.11;53.52;99902.16;1791308;80;21158;-54
2021/06/27 09:07:49;;;;;;;5.47;3.75;;;;;;;28.18;52.73;99896.98;1789361;80;21195;-55
2021/06/27 09:10:54;;;;;;;7.30;4.30;;;;;;;28.21;52.49;99893.55;1782768;79;21220;-56
2021/06/27 09:14:01;;;;;;;7.35;4.00;;;;;;;28.30;51.45;99883.87;1783327;80;21184;-56
2021/06/27 09:17:27;;;;;;;6.37;3.85;;;;;;;28.36;51.54;99882.09;1783994;80;21327;-56
2021/06/27 09:20:33;;;;;;;7.00;4.30;;;;;;;28.45;51.17;99875.17;1784416;79;21252;-55
2021/06/27 09:23:51;;;;;;;9.35;5.00;;;;;;;28.45;51.63;99883.62;1784317;80;21361;-57
2021/06/27 09:26:55;;;;;;;7.62;4.30;;;;;;;28.50;52.04;99884.99;1784365;79;21271;-55
2021/06/27 09:30:00;;;;;;;7.72;4.53;;;;;;;28.59;52.11;99874.73;1773967;80;21896;-56
2021/06/27 09:33:11;;;;;;;7.03;4.28;;;;;;;28.74;52.45;99877.28;1767813;80;21320;-56
2021/06/27 09:36:18;;;;;;;8.43;4.85;;;;;;;28.89;52.65;99877.04;1792591;79;21216;-56
2021/06/27 09:39:26;;;;;;;9.20;4.53;;;;;;;29.02;51.94;99895.95;1792895;80;21630;-55
2021/06/27 09:42:32;;;;;;;8.93;4.47;;;;;;;29.21;51.78;99888.31;1792682;80;21235;-55
2021/06/27 09:45:41;;;;;;;6.58;4.83;;;;;;;29.36;50.27;99883.81;1789859;80;21217;-55
2021/06/27 09:49:08;;;;;;;5.33;4.45;;;;;;;29.49;50.81;99883.00;1742576;81;21372;-56
2021/06/27 09:52:14;;;;;;;6.85;4.50;;;;;;;29.73;49.81;99885.05;1764804;81;21382;-55
2021/06/27 09:55:20;;;;;;;10.65;4.90;;;;;;;29.77;49.54;99885.27;1747991;81;21806;-56
2021/06/27 09:58:26;;;;;;;5.45;4.62;;;;;;;29.86;49.52;99890.46;1764498;81;21264;-57
2021/06/27 10:01:31;;;;;;;8.43;4.70;;;;;;;29.92;49.42;99893.43;1730378;81;21739;-56
2021/06/27 10:04:41;;;;;;;9.38;4.58;;;;;;;30.00;49.43;99892.70;1764535;81;21189;-57
2021/06/27 10:07:46;;;;;;;8.43;4.40;;;;;;;30.14;49.00;99891.53;1748839;81;21777;-56
2021/06/27 10:10:53;;;;;;;7.97;5.00;;;;;;;30.14;49.00;99891.53;1765185;81;21267;-57
2021/06/27 10:14:01;;;;;;;6.42;4.87;;;;;;;30.17;48.77;99886.66;1754451;80;21251;-55
2021/06/27 10:17:10;;;;;;;6.75;4.83;;;;;;;30.19;49.00;99887.16;1792006;80;21228;-55
2021/06/27 10:20:18;;;;;;;9.45;5.17;;;;;;;30.24;49.30;99881.43;1716540;83;21369;-55
2021/06/27 10:23:23;;;;;;;5.80;4.40;;;;;;;30.37;49.27;99886.22;1734279;82;21196;-56
2021/06/27 10:26:32;;;;;;;9.18;4.80;;;;;;;30.42;48.65;99884.69;1734070;82;21736;-55
2021/06/27 10:29:38;;;;;;;12.20;5.20;;;;;;;30.44;48.37;99873.91;1734551;82;21211;-56
2021/06/27 10:32:49;;;;;;;7.35;4.53;;;;;;;30.51;48.26;99865.81;1734994;82;21213;-56
2021/06/27 10:35:57;;;;;;;5.40;4.58;;;;;;;30.70;47.85;99873.30;1735319;82;21776;-55
2021/06/27 10:39:04;;;;;;;8.25;5.12;;;;;;;30.80;47.58;99861.74;1734198;82;21215;-55
2021/06/27 10:42:11;;;;;;;7.55;4.20;;;;;;;30.80;47.33;99862.59;1734347;82;21197;-56
2021/06/27 10:45:17;;;;;;;8.90;4.72;;;;;;;30.79;47.13;99868.00;1737582;81;21764;-55
2021/06/27 10:48:43;;;;;;;7.72;4.60;;;;;;;30.79;46.49;99870.82;1761024;81;21359;-55
2021/06/27 10:52:15;;;;;;;6.67;3.87;;;;;;;30.85;45.83;99861.62;1767386;80;21362;-55
2021/06/27 10:55:31;;;;;;;6.97;4.65;;;;;;;30.90;45.88;99864.32;1767673;81;21457;-56
2021/06/27 10:58:46;;;;;;;6.95;4.10;;;;;;;31.01;46.36;99854.41;1768451;80;21363;-56
2021/06/27 11:02:19;;;;;;;8.50;4.47;;;;;;;30.99;46.17;99844.00;1767956;81;21343;-55
2021/06/27 11:05:41;;;;;;;7.22;4.10;;;;;;;31.05;46.52;99841.31;1768129;80;21339;-55
2021/06/27 11:08:55;;;;;;;5.37;4.03;;;;;;;31.29;47.07;99831.28;1767253;80;21209;-55
2021/06/27 11:12:05;;;;;;;9.50;4.42;;;;;;;31.56;46.34;99833.09;1767250;80;21362;-54
2021/06/27 11:15:23;;;;;;;7.08;4.17;;;;;;;31.72;45.06;99826.66;1767400;81;21888;-56
2021/06/27 11:18:44;;;;;;;7.62;4.12;;;;;;;31.77;45.63;99826.52;1768060;80;21172;-56
2021/06/27 11:21:50;;;;;;;10.55;4.70;;;;;;;31.85;46.19;99819.23;1767606;80;21359;-55
2021/06/27 11:25:02;;;;;;;8.35;4.58;;;;;;;31.89;45.67;99809.75;1768036;80;21362;-56
2021/06/27 11:28:31;;;;;;;6.17;4.22;;;;;;;31.85;44.64;99813.00;1767736;81;21379;-55
2021/06/27 11:31:37;;;;;;;5.90;3.72;;;;;;;31.70;44.38;99812.00;1796071;79;21347;-55
2021/06/27 11:34:43;;;;;;;6.22;4.17;;;;;;;31.60;44.50;99801.57;1784138;80;21378;-55
2021/06/27 11:37:50;;;;;;;5.20;4.00;;;;;;;31.49;44.38;99793.13;1783933;80;21696;-55
2021/06/27 11:40:57;;;;;;;6.00;4.17;;;;;;;31.38;45.21;99799.64;1783900;79;21297;-55
2021/06/27 11:44:23;;;;;;;7.40;3.98;;;;;;;31.28;45.19;99783.52;1775335;80;21848;-54
2021/06/27 11:47:31;;;;;;;10.05;4.22;;;;;;;31.28;44.19;99775.03;1697445;84;21214;-55
2021/06/27 11:50:40;;;;;;;8.00;4.00;;;;;;;31.27;44.90;99768.52;1751873;82;21180;-55
2021/06/27 11:53:45;;;;;;;6.42;3.80;;;;;;;31.36;45.15;99760.96;1749149;81;21355;-55
2021/06/27 11:57:11;;;;;;;6.05;3.60;;;;;;;31.40;44.43;99752.62;1742286;82;21252;-56
2021/06/27 12:00:18;;;;;;;7.47;3.80;;;;;;;31.48;44.27;99760.31;1742309;82;21272;-55
2021/06/27 12:03:28;;;;;;;5.85;3.20;;;;;;;31.63;43.97;99766.38;1732093;83;21770;-55
2021/06/27 12:06:43;;;;;;;4.78;3.33;;;;;;;31.60;42.47;99763.36;1756065;81;21372;-55
2021/06/27 12:09:50;;;;;;;5.30;3.22;;;;;;;31.58;43.26;99766.52;1756200;81;21445;-55
2021/06/27 12:13:06;;;;;;;10.03;4.00;;;;;;;31.63;43.53;99763.54;1750571;81;21253;-55
2021/06/27 12:16:12;;;;;;;7.97;4.55;;;;;;;31.59;42.54;99769.59;1733642;82;21721;-54
2021/06/27 12:19:17;;;;;;;10.25;3.72;;;;;;;31.50;42.50;99770.72;1747171;81;21194;-56
2021/06/27 12:22:22;;;;;;;7.92;4.10;;;;;;;31.40;43.41;99768.19;1717146;82;21357;-55
2021/06/27 12:25:38;;;;;;;5.78;4.10;;;;;;;31.33;42.93;99778.59;1733805;82;21224;-56
2021/06/27 12:28:57;;;;;;;6.25;3.98;;;;;;;31.26;43.76;99773.94;1747950;81;21175;-55
2021/06/27 12:32:05;;;;;;;7.40;4.05;;;;;;;31.25;44.07;99786.43;1734268;82;21260;-55
2021/06/27 12:35:11;;;;;;;7.08;4.22;;;;;;;31.15;44.20;99794.34;1730039;81;21884;-55
2021/06/27 12:38:17;;;;;;;7.97;4.05;;;;;;;31.16;44.71;99788.97;1734116;82;21239;-56
2021/06/27 12:41:28;;;;;;;6.58;4.00;;;;;;;31.20;44.88;99793.64;1747600;81;21226;-55
2021/06/27 12:44:34;;;;;;;6.00;3.85;;;;;;;31.24;44.69;99790.40;1734682;82;21212;-55
2021/06/27 12:47:38;;;;;;;6.83;3.42;;;;;;;31.28;44.24;99796.25;1748817;81;21269;-54
2021/06/27 12:50:44;;;;;;;7.17;4.03;;;;;;;31.27;44.53;99801.66;1763068;78;21199;-55
2021/06/27 12:53:49;;;;;;;6.00;4.45;;;;;;;31.28;44.25;99811.80;1772501;81;21175;-55
2021/06/27 12:57:15;;;;;;;6.50;3.72;;;;;;;31.26;44.02;99816.95;1772715;81;21617;-57
2021/06/27 13:00:26;;;;;;;5.87;3.90;;;;;;;31.21;43.78;99814.25;1767778;81;21287;-56
2021/06/27 13:03:32;;;;;;;8.58;4.67;;;;;;;31.24;44.43;99812.22;1744513;82;21243;-58
2021/06/27 13:06:37;;;;;;;7.78;3.92;;;;;;;31.29;44.37;99803.56;1759748;81;21379;-56
2021/06/27 13:09:48;;;;;;;5.22;3.50;;;;;;;31.28;43.61;99800.48;1761780;81;21213;-56
2021/06/27 13:13:05;;;;;;;9.18;4.00;;;;;;;31.29;43.25;99796.48;1763292;81;21188;-55
2021/06/27 13:16:22;;;;;;;7.20;3.47;;;;;;;31.33;42.95;99789.91;1759505;81;21239;-55
2021/06/27 13:19:28;;;;;;;7.05;4.20;;;;;;;31.35;42.81;99798.07;1760691;81;21173;-56
2021/06/27 13:22:33;;;;;;;8.88;3.67;;;;;;;31.34;42.57;99789.30;1759838;80;21995;-56
2021/06/27 13:25:51;;;;;;;7.30;3.85;;;;;;;31.40;42.69;99787.99;1752261;82;21267;-56
2021/06/27 13:28:57;;;;;;;4.50;3.60;;;;;;;31.41;42.74;99773.52;1752459;82;21227;-55
2021/06/27 13:32:02;;;;;;;7.10;3.83;;;;;;;31.39;42.53;99758.88;1752906;82;21196;-57
2021/06/27 13:35:08;;;;;;;8.23;3.55;;;;;;;31.32;42.84;99767.57;1752909;82;21193;-55
2021/06/27 13:38:16;;;;;;;7.20;4.03;;;;;;;31.25;43.54;99758.71;1770969;80;21343;-57
2021/06/27 13:41:26;;;;;;;8.33;4.35;;;;;;;31.15;44.17;99757.58;1783309;80;21365;-56
2021/06/27 13:44:34;;;;;;;10.25;3.98;;;;;;;31.01;43.90;99746.95;1782188;80;21310;-56
2021/06/27 13:47:39;;;;;;;9.23;4.10;;;;;;;30.88;43.64;99754.95;1782791;80;21185;-56
2021/06/27 13:50:44;;;;;;;7.97;3.92;;;;;;;30.86;44.17;99751.63;1768736;79;21756;-57
2021/06/27 13:53:49;;;;;;;8.50;3.72;;;;;;;30.96;44.70;99760.66;1782956;80;21876;-57
2021/06/27 13:56:55;;;;;;;6.75;4.22;;;;;;;31.12;44.10;99767.56;1783189;80;21349;-55
2021/06/27 14:00:00;;;;;;;5.28;3.77;;;;;;;31.21;43.93;99757.11;1783274;80;21402;-56
2021/06/27 14:03:06;;;;;;;6.08;3.77;;;;;;;31.30;44.09;99737.35;1783716;80;21385;-54
2021/06/27 14:06:14;;;;;;;7.70;3.52;;;;;;;31.40;43.75;99741.30;1783749;80;21374;-54
2021/06/27 14:09:23;;;;;;;7.67;3.00;;;;;;;31.45;44.07;99734.08;1783789;80;21357;-55
2021/06/27 14:12:27;;;;;;;4.08;3.00;;;;;;;31.51;43.31;99722.28;1784128;80;21195;-55
2021/06/27 14:15:32;;;;;;;5.12;3.02;;;;;;;31.52;43.86;99725.39;1784066;80;21216;-55
2021/06/27 14:18:39;;;;;;;7.87;3.60;;;;;;;31.61;43.38;99729.63;1784143;80;21212;-55
2021/06/27 14:21:47;;;;;;;7.55;3.60;;;;;;;31.62;43.55;99739.81;1783937;80;21330;-56
2021/06/27 14:24:51;;;;;;;7.55;3.55;;;;;;;31.61;43.55;99729.63;1784080;80;21267;-55
2021/06/27 14:27:57;;;;;;;7.37;3.65;;;;;;;31.63;44.16;99715.98;1784011;80;21346;-56
2021/06/27 14:31:04;;;;;;;6.05;3.30;;;;;;;31.73;43.88;99715.69;1784001;80;21220;-56
2021/06/27 14:34:11;;;;;;;6.37;3.98;;;;;;;31.74;43.49;99714.50;1783982;80;21216;-56
2021/06/27 14:37:16;;;;;;;7.87;3.77;;;;;;;31.76;43.44;99717.84;1784028;80;21192;-55